createdAt,value
2023-05-10T00:00:48.206Z,9.30
2023-05-10T00:03:15.512Z,9.28
2023-05-10T00:05:42.761Z,9.26
2023-05-10T00:08:09.672Z,9.24
2023-05-10T00:10:37.331Z,9.23
2023-05-10T00:13:04.348Z,9.22
2023-05-10T00:15:35.700Z,9.22
2023-05-10T00:18:02.972Z,9.23
2023-05-10T00:20:29.939Z,9.24
2023-05-10T00:22:57.095Z,9.24
2023-05-10T00:25:24.329Z,9.22
2023-05-10T00:27:51.607Z,9.15
2023-05-10T00:30:19.336Z,9.15
2023-05-10T00:32:46.447Z,9.12
2023-05-10T00:35:13.932Z,9.12
2023-05-10T00:37:41.373Z,9.12
2023-05-10T00:40:09.698Z,9.13
2023-05-10T00:42:37.081Z,9.12
2023-05-10T00:45:05.529Z,9.10
2023-05-10T00:47:32.839Z,9.13
2023-05-10T00:50:03.056Z,9.12
2023-05-10T00:52:31.711Z,9.13
2023-05-10T00:54:59.882Z,9.12
2023-05-10T00:57:27.003Z,9.13
2023-05-10T00:59:54.638Z,9.04
2023-05-10T01:02:21.729Z,9.04
2023-05-10T01:04:48.833Z,9.04
2023-05-10T01:07:16.056Z,9.06
2023-05-10T01:09:43.757Z,9.07
2023-05-10T01:12:12.504Z,9.08
2023-05-10T01:14:39.844Z,9.11
2023-05-10T01:17:08.753Z,9.01
2023-05-10T01:19:38.067Z,9.11
2023-05-10T01:22:57.361Z,9.13
2023-05-10T01:25:45.352Z,9.12
2023-05-10T01:29:00.438Z,9.12
2023-05-10T01:31:36.916Z,9.11
2023-05-10T01:34:09.652Z,9.09
2023-05-10T01:36:43.881Z,9.07
2023-05-10T01:39:16.957Z,9.05
2023-05-10T01:42:07.276Z,9.03
2023-05-10T01:44:43.985Z,9.05
2023-05-10T01:47:12.249Z,9.03
2023-05-10T01:49:51.102Z,9.06
2023-05-10T01:52:21.269Z,9.08
2023-05-10T01:55:00.494Z,9.10
2023-05-10T01:57:33.999Z,9.10
2023-05-10T02:00:04.594Z,9.10
2023-05-10T02:02:45.892Z,9.10
2023-05-10T02:05:16.406Z,9.12
2023-05-10T02:07:44.059Z,9.14
2023-05-10T02:10:12.637Z,9.18
2023-05-10T02:12:43.563Z,9.17
2023-05-10T02:15:14.366Z,9.19
2023-05-10T02:17:43.651Z,9.20
2023-05-10T02:20:12.654Z,9.23
2023-05-10T02:22:41.394Z,9.24
2023-05-10T02:25:10.233Z,9.26
2023-05-10T02:27:38.383Z,9.30
2023-05-10T02:30:08.048Z,9.31
2023-05-10T02:32:36.512Z,9.36
2023-05-10T02:35:04.941Z,9.36
2023-05-10T02:37:33.424Z,9.43
2023-05-10T02:40:01.529Z,9.44
2023-05-10T02:42:32.469Z,9.48
2023-05-10T02:45:02.301Z,9.51
2023-05-10T02:47:31.580Z,9.56
2023-05-10T02:49:58.985Z,9.59
2023-05-10T02:52:34.592Z,9.63
2023-05-10T02:55:08.485Z,9.65
2023-05-10T02:57:39.845Z,9.70
2023-05-10T03:00:07.981Z,9.74
2023-05-10T03:02:35.126Z,9.77
2023-05-10T03:05:02.129Z,9.82
2023-05-10T03:07:32.453Z,9.86
2023-05-10T03:10:05.527Z,9.92
2023-05-10T03:12:37.085Z,10.00
2023-05-10T03:15:06.565Z,10.06
2023-05-10T03:18:10.688Z,10.11
2023-05-10T03:20:44.372Z,10.17
2023-05-10T03:23:51.769Z,10.22
2023-05-10T03:26:24.886Z,10.28
2023-05-10T03:28:53.831Z,10.33
2023-05-10T03:31:21.085Z,10.35
2023-05-10T03:33:52.393Z,10.38
2023-05-10T03:36:24.468Z,10.40
2023-05-10T03:38:51.672Z,10.41
2023-05-10T03:41:18.835Z,10.48
2023-05-10T03:43:45.813Z,10.53
2023-05-10T03:46:12.782Z,10.61
2023-05-10T03:48:40.041Z,10.66
2023-05-10T03:51:07.593Z,10.71
2023-05-10T03:53:34.547Z,10.78
2023-05-10T03:56:02.157Z,10.83
2023-05-10T03:58:29.211Z,10.90
2023-05-10T04:00:56.391Z,10.92
2023-05-10T04:03:24.393Z,10.98
2023-05-10T04:06:03.567Z,11.05
2023-05-10T04:08:30.820Z,11.18
2023-05-10T04:11:09.117Z,11.22
2023-05-10T04:13:37.942Z,11.29
2023-05-10T04:16:05.914Z,11.39
2023-05-10T04:18:33.515Z,11.42
2023-05-10T04:21:03.961Z,11.52
2023-05-10T04:23:32.687Z,11.64
2023-05-10T04:26:04.538Z,11.75
2023-05-10T04:28:34.682Z,11.84
2023-05-10T04:31:03.695Z,11.91
2023-05-10T04:33:31.765Z,12.02
2023-05-10T04:35:58.899Z,12.07
2023-05-10T04:38:27.045Z,12.21
2023-05-10T04:40:55.551Z,12.33
2023-05-10T04:43:22.513Z,12.37
2023-05-10T04:45:49.485Z,12.50
2023-05-10T04:48:16.431Z,12.53
2023-05-10T04:50:43.393Z,12.74
2023-05-10T04:53:10.300Z,12.85
2023-05-10T04:55:37.367Z,13.01
2023-05-10T04:58:04.275Z,13.13
2023-05-10T05:00:31.233Z,13.15
2023-05-10T05:02:58.239Z,13.39
2023-05-10T05:05:25.462Z,13.56
2023-05-10T05:07:52.468Z,13.75
2023-05-10T05:10:22.768Z,13.84
2023-05-10T05:12:50.976Z,14.03
2023-05-10T05:15:19.465Z,14.06
2023-05-10T05:17:46.583Z,14.28
2023-05-10T05:20:14.291Z,14.50
2023-05-10T05:22:42.099Z,14.73
2023-05-10T05:25:11.091Z,14.86
2023-05-10T05:27:37.961Z,15.27
2023-05-10T05:30:05.827Z,15.59
2023-05-10T05:32:32.794Z,15.69
2023-05-10T05:35:00.459Z,15.84
2023-05-10T05:37:27.732Z,15.59
2023-05-10T05:39:56.033Z,16.08
2023-05-10T05:42:23.100Z,16.23
2023-05-10T05:44:50.934Z,16.34
2023-05-10T05:47:20.971Z,16.28
2023-05-10T05:49:49.061Z,16.42
2023-05-10T05:52:19.504Z,16.60
2023-05-10T05:54:46.720Z,16.71
2023-05-10T05:57:15.480Z,16.74
2023-05-10T05:59:45.390Z,16.91
2023-05-10T06:02:14.658Z,16.96
2023-05-10T06:04:44.423Z,16.99
2023-05-10T06:07:11.966Z,16.69
2023-05-10T06:09:40.408Z,16.85
2023-05-10T06:12:07.350Z,16.98
2023-05-10T06:14:34.311Z,16.67
2023-05-10T06:17:01.804Z,16.69
2023-05-10T06:19:29.874Z,16.84
2023-05-10T06:21:57.244Z,16.80
2023-05-10T06:24:24.279Z,16.53
2023-05-10T06:26:51.672Z,16.40
2023-05-10T06:29:18.668Z,16.67
2023-05-10T06:31:45.719Z,16.92
2023-05-10T06:34:13.715Z,17.14
2023-05-10T06:36:41.096Z,16.97
2023-05-10T06:39:08.761Z,17.16
2023-05-10T06:41:35.859Z,17.24
2023-05-10T06:44:03.366Z,17.33
2023-05-10T06:46:33.670Z,17.45
2023-05-10T06:49:01.676Z,17.47
2023-05-10T06:51:29.386Z,17.42
2023-05-10T06:53:56.731Z,17.49
2023-05-10T06:56:23.922Z,17.45
2023-05-10T06:58:50.912Z,17.60
2023-05-10T07:01:19.202Z,17.78
2023-05-10T07:03:46.495Z,17.84
2023-05-10T07:06:29.389Z,18.15
2023-05-10T07:08:56.853Z,18.05
2023-05-10T07:11:24.142Z,18.06
2023-05-10T07:13:51.139Z,18.50
2023-05-10T07:16:18.207Z,18.84
2023-05-10T07:18:49.853Z,18.71
2023-05-10T07:21:16.852Z,19.11
2023-05-10T07:23:45.137Z,19.50
2023-05-10T07:26:12.739Z,19.27
2023-05-10T07:28:40.236Z,19.47
2023-05-10T07:31:07.244Z,19.93
2023-05-10T07:33:34.281Z,20.34
2023-05-10T07:36:01.494Z,20.77
2023-05-10T07:38:28.580Z,21.04
2023-05-10T07:40:55.625Z,21.36
2023-05-10T07:43:22.656Z,21.74
2023-05-10T07:45:49.935Z,21.66
2023-05-10T07:48:16.931Z,22.02
2023-05-10T07:50:43.872Z,22.34
2023-05-10T07:53:11.052Z,22.51
2023-05-10T07:55:37.995Z,23.01
2023-05-10T07:58:05.099Z,23.26
2023-05-10T08:00:32.129Z,23.84
2023-05-10T08:02:59.518Z,24.03
2023-05-10T08:05:26.753Z,24.33
2023-05-10T08:07:53.919Z,24.97
2023-05-10T08:10:21.093Z,25.40
2023-05-10T08:12:48.064Z,25.99
2023-05-10T08:15:15.288Z,26.25
2023-05-10T08:17:42.772Z,26.64
2023-05-10T08:20:10.406Z,27.00
2023-05-10T08:22:37.542Z,27.54
2023-05-10T08:25:04.717Z,27.59
2023-05-10T08:27:31.835Z,28.08
2023-05-10T08:29:58.708Z,28.19
2023-05-10T08:32:25.790Z,28.58
2023-05-10T08:34:52.904Z,28.79
2023-05-10T08:37:21.083Z,29.32
2023-05-10T08:39:50.237Z,29.57
2023-05-10T08:42:22.829Z,30.99
2023-05-10T08:44:50.413Z,32.01
2023-05-10T08:47:19.404Z,32.43
2023-05-10T08:49:52.078Z,31.00
2023-05-10T08:52:19.379Z,32.77
2023-05-10T08:54:46.308Z,33.77
2023-05-10T08:57:13.255Z,34.02
2023-05-10T08:59:51.837Z,34.64
2023-05-10T09:02:22.215Z,35.18
2023-05-10T09:04:50.258Z,34.90
2023-05-10T09:07:17.805Z,35.42
2023-05-10T09:09:45.508Z,35.63
2023-05-10T09:12:14.140Z,35.98
2023-05-10T09:14:41.372Z,35.32
2023-05-10T09:17:08.442Z,34.06
2023-05-10T09:19:35.657Z,34.32
2023-05-10T09:22:03.443Z,35.74
2023-05-10T09:24:31.336Z,36.67
2023-05-10T09:26:59.551Z,37.43
2023-05-10T09:29:26.604Z,36.68
2023-05-10T09:31:55.738Z,35.33
2023-05-10T09:34:30.992Z,31.72
2023-05-10T09:37:04.608Z,31.24
2023-05-10T09:39:36.968Z,30.95
2023-05-10T09:42:07.402Z,30.69
2023-05-10T09:44:35.187Z,30.38
2023-05-10T09:47:05.410Z,29.74
2023-05-10T09:49:32.691Z,29.19
2023-05-10T09:52:04.545Z,28.64
2023-05-10T09:54:32.073Z,28.20
2023-05-10T09:56:58.924Z,27.61
2023-05-10T09:59:29.976Z,28.07
2023-05-10T10:01:59.176Z,29.78
2023-05-10T10:04:27.377Z,29.91
2023-05-10T10:07:05.145Z,29.44
2023-05-10T10:09:33.123Z,29.94
2023-05-10T10:12:04.171Z,32.36
2023-05-10T10:14:31.849Z,31.37
2023-05-10T10:19:34.753Z,28.91
2023-05-10T10:22:01.874Z,28.32
2023-05-10T10:24:28.883Z,27.89
2023-05-10T10:27:05.459Z,27.20
2023-05-10T10:29:49.105Z,26.36
2023-05-10T10:32:34.171Z,25.81
2023-05-10T10:35:01.468Z,25.24
2023-05-10T10:37:45.386Z,24.87
2023-05-10T10:40:27.980Z,24.49
2023-05-10T10:42:56.265Z,23.69
2023-05-10T10:45:23.795Z,24.05
2023-05-10T10:48:14.646Z,25.50
2023-05-10T10:50:46.767Z,26.66
2023-05-10T10:53:14.244Z,28.56
2023-05-10T10:55:49.182Z,29.63
2023-05-10T10:58:32.014Z,30.21
2023-05-10T11:01:19.213Z,29.28
2023-05-10T11:04:04.286Z,27.76
2023-05-10T11:06:35.371Z,26.79
2023-05-10T11:09:10.161Z,26.16
2023-05-10T11:11:49.283Z,25.65
2023-05-10T11:14:21.494Z,24.99
2023-05-10T11:16:48.434Z,24.75
2023-05-10T11:19:17.619Z,24.50
2023-05-10T11:21:48.976Z,24.17
2023-05-10T11:24:24.298Z,23.99
2023-05-10T11:26:52.917Z,23.87
2023-05-10T11:29:20.221Z,23.90
2023-05-10T11:31:48.597Z,23.62
2023-05-10T11:34:34.666Z,23.44
2023-05-10T11:37:02.670Z,23.27
2023-05-10T11:39:31.326Z,22.97
2023-05-10T11:41:59.425Z,22.66
2023-05-10T11:44:33.385Z,22.24
2023-05-10T11:47:03.504Z,22.14
2023-05-10T11:49:30.616Z,22.01
2023-05-10T11:52:08.062Z,21.92
2023-05-10T11:54:37.874Z,21.48
2023-05-10T11:57:05.326Z,21.52
2023-05-10T11:59:32.234Z,21.48
2023-05-10T12:01:59.246Z,21.59
2023-05-10T12:04:26.834Z,21.61
2023-05-10T12:06:54.176Z,21.62
2023-05-10T12:09:35.330Z,21.48
2023-05-10T12:12:07.020Z,21.35
2023-05-10T12:14:36.459Z,21.41
2023-05-10T12:17:03.462Z,21.41
2023-05-10T12:19:38.600Z,21.44
2023-05-10T12:22:07.001Z,21.55
2023-05-10T12:24:39.354Z,21.30
2023-05-10T12:30:05.570Z,21.20
2023-05-10T12:32:45.437Z,20.98
2023-05-10T12:35:12.823Z,20.98
2023-05-10T12:37:40.320Z,20.92
2023-05-10T12:40:09.194Z,20.86
2023-05-10T12:42:37.189Z,20.81
2023-05-10T12:45:05.538Z,20.74
2023-05-10T12:47:35.917Z,20.43
2023-05-10T12:50:03.814Z,20.55
2023-05-10T12:52:33.230Z,20.40
2023-05-10T12:55:04.211Z,20.36
2023-05-10T12:57:36.815Z,20.33
2023-05-10T13:00:06.124Z,20.24
2023-05-10T13:02:33.263Z,19.81
2023-05-10T13:05:00.341Z,19.69
2023-05-10T13:07:27.333Z,19.69
2023-05-10T13:09:54.178Z,19.70
2023-05-10T13:12:21.182Z,19.55
2023-05-10T13:14:48.250Z,19.56
2023-05-10T13:17:15.186Z,19.24
2023-05-10T13:19:42.113Z,19.31
2023-05-10T13:22:09.036Z,19.34
2023-05-10T13:24:36.106Z,19.41
2023-05-10T13:27:03.022Z,19.39
2023-05-10T13:29:29.976Z,19.40
2023-05-10T13:31:57.326Z,19.27
2023-05-10T13:34:25.323Z,19.28
2023-05-10T13:36:53.976Z,19.34
2023-05-10T13:39:21.769Z,19.24
2023-05-10T13:41:48.717Z,19.33
2023-05-10T13:44:16.227Z,19.39
2023-05-10T13:46:43.490Z,19.40
2023-05-10T13:49:11.021Z,19.47
2023-05-10T13:51:37.992Z,19.44
2023-05-10T13:54:04.914Z,19.43
2023-05-10T13:56:31.867Z,19.43
2023-05-10T13:58:59.493Z,19.42
2023-05-10T14:01:26.545Z,19.39
2023-05-10T14:03:53.494Z,19.39
2023-05-10T14:06:20.496Z,19.37
2023-05-10T14:08:47.417Z,19.34
2023-05-10T14:11:14.725Z,19.29
2023-05-10T14:13:42.128Z,19.21
2023-05-10T14:16:10.533Z,19.16
2023-05-10T14:18:37.525Z,19.07
2023-05-10T14:21:07.188Z,19.05
2023-05-10T14:23:34.126Z,19.04
2023-05-10T14:26:01.022Z,18.99
2023-05-10T14:28:28.039Z,18.94
2023-05-10T14:30:55.121Z,18.94
2023-05-10T14:33:22.149Z,18.88
2023-05-10T14:35:49.259Z,18.87
2023-05-10T14:38:16.296Z,18.84
2023-05-10T14:40:44.119Z,18.80
2023-05-10T14:43:11.061Z,18.76
2023-05-10T14:45:38.128Z,18.70
2023-05-10T14:48:05.991Z,18.62
2023-05-10T14:50:36.973Z,18.56
2023-05-10T14:53:04.606Z,18.51
2023-05-10T14:55:31.580Z,18.48
2023-05-10T14:57:59.386Z,18.43
2023-05-10T15:00:26.706Z,18.42
2023-05-10T15:02:54.329Z,18.37
2023-05-10T15:05:21.855Z,18.36
2023-05-10T15:07:49.628Z,18.29
2023-05-10T15:10:16.753Z,18.22
2023-05-10T15:12:43.733Z,18.08
2023-05-10T15:15:11.071Z,18.08
2023-05-10T15:17:38.252Z,18.05
2023-05-10T15:20:05.859Z,17.96
2023-05-10T15:22:34.372Z,17.96
2023-05-10T15:25:01.494Z,17.93
2023-05-10T15:27:29.164Z,17.90
2023-05-10T15:29:56.349Z,17.86
2023-05-10T15:32:23.353Z,17.79
2023-05-10T15:34:50.276Z,17.77
2023-05-10T15:37:17.175Z,17.72
2023-05-10T15:39:45.466Z,17.66
2023-05-10T15:42:13.346Z,17.65
2023-05-10T15:44:40.274Z,17.60
2023-05-10T15:47:07.284Z,17.56
2023-05-10T15:49:34.834Z,17.49
2023-05-10T15:52:02.103Z,17.42
2023-05-10T15:54:29.135Z,17.36
2023-05-10T15:56:56.456Z,17.32
2023-05-10T15:59:23.423Z,17.26
2023-05-10T16:01:51.148Z,17.23
2023-05-10T16:04:18.412Z,17.16
2023-05-10T16:06:45.981Z,17.10
2023-05-10T16:09:12.980Z,17.04
2023-05-10T16:11:40.342Z,16.98
2023-05-10T16:14:07.520Z,16.92
2023-05-10T16:16:35.815Z,16.87
2023-05-10T16:19:04.025Z,16.78
2023-05-10T16:21:34.378Z,16.74
2023-05-10T16:24:04.005Z,16.67
2023-05-10T16:26:31.012Z,16.60
2023-05-10T16:28:58.067Z,16.54
2023-05-10T16:31:25.137Z,16.47
2023-05-10T16:33:52.143Z,16.43
2023-05-10T16:36:19.218Z,16.36
2023-05-10T16:38:46.146Z,16.33
2023-05-10T16:41:13.189Z,16.24
2023-05-10T16:43:40.415Z,16.21
2023-05-10T16:46:13.483Z,16.11
2023-05-10T16:48:40.616Z,16.10
2023-05-10T16:51:07.988Z,16.01
2023-05-10T16:53:35.289Z,15.98
2023-05-10T16:56:04.742Z,15.91
2023-05-10T16:58:36.967Z,15.86
2023-05-10T17:01:05.989Z,15.73
2023-05-10T17:03:34.983Z,15.67
2023-05-10T17:06:03.442Z,15.47
2023-05-10T17:08:33.037Z,15.60
2023-05-10T17:11:05.237Z,15.49
2023-05-10T17:13:33.372Z,15.40
2023-05-10T17:16:04.484Z,15.32
2023-05-10T17:18:31.793Z,15.43
2023-05-10T17:20:58.754Z,15.42
2023-05-10T17:23:25.759Z,15.36
2023-05-10T17:25:53.216Z,15.31
2023-05-10T17:28:20.696Z,15.24
2023-05-10T17:30:47.589Z,15.20
2023-05-10T17:33:14.602Z,15.18
2023-05-10T17:35:47.350Z,15.14
2023-05-10T17:38:14.541Z,15.10
2023-05-10T17:40:42.180Z,15.08
2023-05-10T17:43:09.331Z,15.04
2023-05-10T17:45:36.731Z,15.02
2023-05-10T17:48:04.305Z,15.00
2023-05-10T17:50:32.730Z,14.96
2023-05-10T17:52:59.590Z,14.94
2023-05-10T17:55:27.246Z,14.91
2023-05-10T17:57:54.280Z,14.89
2023-05-10T18:00:21.315Z,14.85
2023-05-10T18:02:48.291Z,14.81
2023-05-10T18:05:17.034Z,14.78
2023-05-10T18:07:44.671Z,14.74
2023-05-10T18:10:11.850Z,14.72
2023-05-10T18:12:39.019Z,14.69
2023-05-10T18:15:06.441Z,14.66
2023-05-10T18:17:35.088Z,14.64
2023-05-10T18:20:02.409Z,14.63
2023-05-10T18:22:30.073Z,14.61
2023-05-10T18:24:56.933Z,14.58
2023-05-10T18:27:23.894Z,14.57
2023-05-10T18:29:51.822Z,14.54
2023-05-10T18:32:18.799Z,14.48
2023-05-10T18:34:46.000Z,14.42
2023-05-10T18:37:13.025Z,14.41
2023-05-10T18:39:40.129Z,14.47
2023-05-10T18:42:07.938Z,14.51
2023-05-10T18:44:37.848Z,14.56
2023-05-10T18:47:04.936Z,14.61
2023-05-10T18:49:32.257Z,14.65
2023-05-10T18:51:59.295Z,14.67
2023-05-10T18:54:26.927Z,14.67
2023-05-10T18:56:53.898Z,14.69
2023-05-10T18:59:20.938Z,14.69
2023-05-10T19:01:55.717Z,14.67
2023-05-10T19:04:27.718Z,14.65
2023-05-10T19:06:56.058Z,14.62
2023-05-10T19:09:23.834Z,14.58
2023-05-10T19:11:51.972Z,14.54
2023-05-10T19:14:19.125Z,14.54
2023-05-10T19:16:49.073Z,14.51
2023-05-10T19:19:16.232Z,14.48
2023-05-10T19:21:43.374Z,14.44
2023-05-10T19:24:11.986Z,14.41
2023-05-10T19:26:38.900Z,14.39
2023-05-10T19:29:06.218Z,14.36
2023-05-10T19:31:34.709Z,14.33
2023-05-10T19:34:03.025Z,14.30
2023-05-10T19:36:30.049Z,14.24
2023-05-10T19:38:57.091Z,14.22
2023-05-10T19:41:24.202Z,14.17
2023-05-10T19:43:52.828Z,14.16
2023-05-10T19:46:20.344Z,14.11
2023-05-10T19:48:47.631Z,14.08
2023-05-10T19:51:15.021Z,14.05
2023-05-10T19:53:45.137Z,14.06
2023-05-10T19:56:13.246Z,14.02
2023-05-10T19:58:40.578Z,14.09
2023-05-10T20:01:08.330Z,14.10
2023-05-10T20:03:36.345Z,14.10
2023-05-10T20:06:04.306Z,14.09
2023-05-10T20:08:31.634Z,14.10
2023-05-10T20:11:00.781Z,14.09
2023-05-10T20:13:27.911Z,14.07
2023-05-10T20:15:59.648Z,14.06
2023-05-10T20:18:27.244Z,14.03
2023-05-10T20:21:00.591Z,13.99
2023-05-10T20:23:27.767Z,13.95
2023-05-10T20:25:55.111Z,13.90
2023-05-10T20:28:25.420Z,13.89
2023-05-10T20:30:54.161Z,13.86
2023-05-10T20:33:24.120Z,13.84
2023-05-10T20:35:51.485Z,13.81
2023-05-10T20:38:18.730Z,13.76
2023-05-10T20:40:46.622Z,13.71
2023-05-10T20:43:13.808Z,13.71
2023-05-10T20:45:40.767Z,13.72
2023-05-10T20:48:10.264Z,13.70
2023-05-10T20:50:37.199Z,13.63
2023-05-10T20:53:04.213Z,13.64
2023-05-10T20:55:31.216Z,13.63
2023-05-10T20:57:58.113Z,13.60
2023-05-10T21:00:25.202Z,13.60
2023-05-10T21:02:52.116Z,13.58
2023-05-10T21:05:19.141Z,13.55
2023-05-10T21:07:46.192Z,13.53
2023-05-10T21:10:13.454Z,13.51
2023-05-10T21:12:40.553Z,13.51
2023-05-10T21:15:08.246Z,13.50
2023-05-10T21:17:35.169Z,13.49
2023-05-10T21:20:02.331Z,13.45
2023-05-10T21:22:30.752Z,13.42
2023-05-10T21:24:58.014Z,13.39
2023-05-10T21:27:24.979Z,13.37
2023-05-10T21:29:52.318Z,13.36
2023-05-10T21:32:20.317Z,13.35
2023-05-10T21:34:47.314Z,13.33
2023-05-10T21:37:16.303Z,13.32
2023-05-10T21:39:43.791Z,13.28
2023-05-10T21:42:10.791Z,13.28
2023-05-10T21:44:38.786Z,13.26
2023-05-10T21:47:05.715Z,13.24
2023-05-10T21:49:32.626Z,13.21
2023-05-10T21:51:59.564Z,13.17
2023-05-10T21:54:26.462Z,13.14
2023-05-10T21:56:53.768Z,13.12
2023-05-10T21:59:21.811Z,13.11
2023-05-10T22:01:48.855Z,13.08
2023-05-10T22:04:15.997Z,13.08
2023-05-10T22:06:43.016Z,13.07
2023-05-10T22:09:10.242Z,13.03
2023-05-10T22:11:38.430Z,13.00
2023-05-10T22:14:05.323Z,12.98
2023-05-10T22:16:32.320Z,12.95
2023-05-10T22:18:59.640Z,12.91
2023-05-10T22:21:26.565Z,12.89
2023-05-10T22:23:53.459Z,12.88
2023-05-10T22:26:21.624Z,12.83
2023-05-10T22:28:48.524Z,12.79
2023-05-10T22:31:15.433Z,12.81
2023-05-10T22:33:42.398Z,12.78
2023-05-10T22:36:09.376Z,12.73
2023-05-10T22:38:36.288Z,12.75
2023-05-10T22:41:03.328Z,12.74
2023-05-10T22:43:33.601Z,12.73
2023-05-10T22:46:00.500Z,12.71
2023-05-10T22:48:28.764Z,12.72
2023-05-10T22:50:56.309Z,12.71
2023-05-10T22:53:23.350Z,12.72
2023-05-10T22:55:51.526Z,12.72
2023-05-10T22:58:21.295Z,12.70
2023-05-10T23:01:03.277Z,12.71
2023-05-10T23:03:30.673Z,12.71
2023-05-10T23:05:58.094Z,12.73
2023-05-10T23:08:25.503Z,12.70
2023-05-10T23:10:52.590Z,12.74
2023-05-10T23:13:21.145Z,12.72
2023-05-10T23:15:48.392Z,12.73
2023-05-10T23:18:16.130Z,12.72
2023-05-10T23:20:43.316Z,12.70
2023-05-10T23:23:10.854Z,12.70
2023-05-10T23:25:38.266Z,12.69
2023-05-10T23:28:05.735Z,12.66
2023-05-10T23:30:32.641Z,12.61
2023-05-10T23:32:59.728Z,12.63
2023-05-10T23:35:26.615Z,12.63
2023-05-10T23:37:54.433Z,12.61
2023-05-10T23:40:21.691Z,12.60
2023-05-10T23:42:48.763Z,12.57
2023-05-10T23:45:15.836Z,12.52
2023-05-10T23:47:42.931Z,12.53
2023-05-10T23:50:11.191Z,12.50
2023-05-10T23:52:38.297Z,12.49
2023-05-10T23:55:05.601Z,12.47
2023-05-10T23:57:36.272Z,12.47
